Walla Walla, Washington
Current Conditions -  °F | °C
As of 4:53 AM on Friday 28 Nov 2014 (Local Time) from KALW Reporting Station
Overcast Overcast  
Wind Chill: 59°   Ceiling: 5500
Heat Index: 59°   Visibility: 10mi
Dew Point: 43°   Wind: 16mph
Humidity: 55%   Direction: 200°SSW
Pressure: 29.67"   Gusts: NA
Location:  46.07°N, 118.34°W
Report Text: KALW 281253Z AUTO 20014KT 10SM OVC055 15/06 A2967 RMK AO2 SLP045 T01500061
Loading
Personal Weather Stations






























Interactive Weather Map New forecast layout! Learn more

10-Day Weather Forecast

Advertisements
Track Severe Weather on mobile